Time;durP1;ratioP1;P1;durP2;ratioP2;P2;SDS_P1;SDS_P2;PMS_P1;PMS_P2;Temp;Humidity;BMP_temperature;BMP_pressure;BME280_temperature;BME280_humidity;BME280_pressure;Samples;Min_cycle;Max_cycle;Signal;HPM_P1;HPM_P2
2023/01/03 00:00:49;;;;;;;42.00;7.95;;;3.90;99.90;;;;;;6210428;23;20059;-67
2023/01/03 00:03:20;;;;;;;45.30;8.80;;;4.00;99.90;;;;;;6233635;23;20006;-63
2023/01/03 00:05:54;;;;;;;83.78;8.38;;;4.00;99.90;;;;;;6215829;23;20013;-66
2023/01/03 00:08:27;;;;;;;100.18;9.02;;;4.00;99.90;;;;;;6237340;23;20003;-67
2023/01/03 00:11:02;;;;;;;77.40;8.60;;;3.90;99.90;;;;;;6215779;23;20009;-64
2023/01/03 00:13:36;;;;;;;29.23;7.45;;;3.90;99.90;;;;;;6264324;23;19999;-66
2023/01/03 00:16:20;;;;;;;68.25;7.75;;;3.80;99.90;;;;;;6275184;23;20050;-66
2023/01/03 00:18:56;;;;;;;37.63;6.40;;;3.70;99.90;;;;;;6262815;23;20003;-64
2023/01/03 00:21:27;;;;;;;99.50;9.23;;;3.80;99.90;;;;;;6369143;22;20014;-66
2023/01/03 00:24:00;;;;;;;19.58;8.05;;;3.80;99.90;;;;;;6267952;23;20002;-62
2023/01/03 00:26:46;;;;;;;49.30;8.07;;;3.80;99.90;;;;;;6364476;23;20062;-65
2023/01/03 00:29:20;;;;;;;41.95;7.10;;;3.80;99.90;;;;;;6262037;23;20007;-65
2023/01/03 00:31:54;;;;;;;;;;;3.70;99.90;;;;;;6365287;23;20013;-65
2023/01/03 00:34:29;;;;;;;14.68;7.00;;;3.80;99.90;;;;;;6286294;23;19925;-66
2023/01/03 00:37:02;;;;;;;19.70;7.57;;;3.90;99.90;;;;;;6340816;23;20015;-66
2023/01/03 00:39:36;;;;;;;24.17;7.55;;;3.90;99.90;;;;;;6264369;23;20054;-67
2023/01/03 00:42:10;;;;;;;30.40;10.02;;;4.00;99.90;;;;;;6264795;23;20038;-64
2023/01/03 00:44:46;;;;;;;63.13;10.15;;;4.00;99.90;;;;;;6239380;23;20046;-62
2023/01/03 00:47:20;;;;;;;36.90;8.73;;;4.00;99.90;;;;;;6263683;23;20013;-65
2023/01/03 00:49:51;;;;;;;44.13;9.05;;;3.90;99.90;;;;;;6238974;23;20058;-65
2023/01/03 00:52:22;;;;;;;90.63;10.60;;;3.90;99.90;;;;;;6264867;23;20066;-66
2023/01/03 00:54:53;;;;;;;123.82;10.57;;;3.90;99.90;;;;;;6263675;23;20003;-65
2023/01/03 00:57:29;;;;;;;69.88;10.38;;;3.80;99.90;;;;;;6238297;23;20069;-62
2023/01/03 01:00:00;;;;;;;88.00;8.77;;;3.70;99.90;;;;;;6239847;23;20009;-66
2023/01/03 01:02:38;;;;;;;64.97;8.98;;;3.80;99.90;;;;;;6257291;23;20327;-66
2023/01/03 01:05:12;;;;;;;140.48;9.70;;;3.80;99.90;;;;;;6262753;22;20503;-66
2023/01/03 01:07:43;;;;;;;83.90;9.32;;;3.90;99.90;;;;;;6216513;23;20013;-65
2023/01/03 01:10:19;;;;;;;;;;;3.90;99.90;;;;;;6263814;23;19999;-65
2023/01/03 01:12:54;;;;;;;94.25;8.57;;;3.90;99.90;;;;;;6266062;23;19904;-65
2023/01/03 01:15:28;;;;;;;67.20;7.82;;;3.80;99.90;;;;;;6264604;23;20013;-63
2023/01/03 01:18:02;;;;;;;97.88;8.70;;;3.80;99.90;;;;;;6231467;23;20075;-65
2023/01/03 01:20:38;;;;;;;87.22;9.55;;;3.80;99.90;;;;;;6241243;23;20359;-65
2023/01/03 01:23:12;;;;;;;58.70;10.10;;;3.80;99.90;;;;;;6264968;23;20005;-65
2023/01/03 01:25:43;;;;;;;63.83;8.93;;;3.90;99.90;;;;;;6288305;23;20055;-65
2023/01/03 01:28:17;;;;;;;22.60;7.07;;;3.90;99.90;;;;;;6264425;23;19991;-65
2023/01/03 01:30:48;;;;;;;46.20;8.30;;;3.90;99.90;;;;;;6288474;23;20054;-64
2023/01/03 01:33:22;;;;;;;71.57;8.05;;;4.00;99.90;;;;;;6263440;23;20167;-65
2023/01/03 01:35:58;;;;;;;22.83;7.13;;;4.10;99.90;;;;;;6256595;23;20011;-64
2023/01/03 01:38:29;;;;;;;96.93;9.13;;;4.10;99.90;;;;;;6264530;23;20484;-65
2023/01/03 01:41:03;;;;;;;57.85;7.82;;;4.10;99.90;;;;;;6240010;23;19995;-67
2023/01/03 01:46:43;;;;;;;90.93;8.73;;;4.00;99.90;;;;;;6264430;23;20596;-65
2023/01/03 01:49:27;;;;;;;71.85;8.60;;;4.10;99.90;;;;;;6263790;23;19998;-64
2023/01/03 01:52:03;;;;;;;69.00;8.38;;;4.10;99.90;;;;;;6264238;23;19999;-64
2023/01/03 01:54:40;;;;;;;16.73;7.40;;;3.80;99.90;;;;;;6265679;23;19998;-65
2023/01/03 01:57:15;;;;;;;41.88;7.05;;;3.90;99.90;;;;;;6262555;23;20279;-63
2023/01/03 01:59:50;;;;;;;164.27;10.27;;;4.00;99.90;;;;;;6263087;23;20061;-67
2023/01/03 02:02:22;;;;;;;83.30;9.15;;;3.90;99.90;;;;;;6261701;23;20017;-63
2023/01/03 02:04:55;;;;;;;84.88;8.50;;;3.80;99.90;;;;;;6231348;23;20014;-65
2023/01/03 02:07:29;;;;;;;78.47;8.25;;;3.80;99.90;;;;;;6239047;23;20366;-65
2023/01/03 02:10:01;;;;;;;69.13;7.95;;;3.90;99.90;;;;;;6263860;23;19998;-63
2023/01/03 02:13:05;;;;;;;35.25;6.97;;;4.00;99.90;;;;;;6230347;23;20010;-65
2023/01/03 02:16:05;;;;;;;86.70;7.75;;;4.00;99.90;;;;;;6272031;23;20021;-64
2023/01/03 02:19:05;;;;;;;82.93;8.38;;;4.00;99.90;;;;;;6175709;23;20081;-64
2023/01/03 02:22:04;;;;;;;94.28;7.57;;;4.00;99.90;;;;;;6128236;23;20008;-66
2023/01/03 02:24:58;;;;;;;32.45;6.97;;;4.10;99.90;;;;;;6174775;23;20269;-64
2023/01/03 02:27:53;;;;;;;89.37;8.53;;;4.10;99.90;;;;;;6150534;23;20000;-64
2023/01/03 02:30:45;;;;;;;54.30;7.70;;;4.00;99.90;;;;;;6150265;23;20220;-64
2023/01/03 02:33:34;;;;;;;20.40;6.00;;;3.90;99.90;;;;;;6150499;23;20006;-63
2023/01/03 02:36:39;;;;;;;26.90;7.38;;;3.90;99.90;;;;;;6152216;23;20076;-65
2023/01/03 02:39:18;;;;;;;35.60;7.88;;;4.00;99.90;;;;;;6149734;23;20000;-65
2023/01/03 02:42:56;;;;;;;58.55;6.72;;;4.00;99.90;;;;;;6149435;23;20350;-63
2023/01/03 02:45:04;;;;;;;20.83;6.85;;;4.00;99.90;;;;;;6173738;23;20008;-66
2023/01/03 02:48:07;;;;;;;63.00;7.35;;;4.10;99.90;;;;;;6151288;23;20012;-63
2023/01/03 02:50:48;;;;;;;64.97;8.18;;;4.10;99.90;;;;;;6147702;23;20008;-64
2023/01/03 02:53:26;;;;;;;28.80;6.70;;;4.00;99.90;;;;;;6172926;23;19996;-64
2023/01/03 02:56:07;;;;;;;67.50;7.20;;;3.90;99.90;;;;;;6250254;23;20010;-65
2023/01/03 02:58:47;;;;;;;90.28;9.13;;;3.80;99.90;;;;;;6263844;23;19999;-63
2023/01/03 03:01:22;;;;;;;44.78;7.03;;;3.80;99.90;;;;;;6238544;23;20010;-66
2023/01/03 03:04:00;;;;;;;57.97;7.60;;;3.80;99.90;;;;;;6264309;23;20002;-62
2023/01/03 03:07:18;;;;;;;52.63;8.13;;;3.80;99.90;;;;;;6227858;23;20015;-63
2023/01/03 03:15:40;;;;;;;43.00;7.82;;;3.80;99.90;;;;;;6266306;23;20009;-62
2023/01/03 03:18:35;;;;;;;44.80;8.80;;;3.80;99.90;;;;;;6263622;23;20013;-66
2023/01/03 03:24:48;;;;;;;17.02;8.32;;;3.90;99.90;;;;;;6287834;23;19998;-63
2023/01/03 03:30:07;;;;;;;31.45;8.15;;;4.00;99.90;;;;;;6265812;23;20009;-63
2023/01/03 03:32:45;;;;;;;32.90;7.97;;;4.10;99.90;;;;;;6239558;23;20686;-65
2023/01/03 03:35:23;;;;;;;29.90;8.15;;;4.10;99.90;;;;;;6297920;23;20013;-62
2023/01/03 03:38:01;;;;;;;27.88;8.48;;;4.10;99.90;;;;;;6275426;23;20011;-64
2023/01/03 03:46:50;;;;;;;32.53;7.47;;;4.00;99.90;;;;;;6265037;23;20005;-64
2023/01/03 03:49:37;;;;;;;24.48;8.43;;;4.10;99.90;;;;;;6208259;23;20007;-64
2023/01/03 03:52:15;;;;;;;92.53;10.10;;;4.00;99.90;;;;;;6187108;23;20406;-63
2023/01/03 03:54:54;;;;;;;31.83;7.55;;;3.90;99.90;;;;;;6207693;23;20342;-65
2023/01/03 03:57:33;;;;;;;26.90;8.27;;;4.00;99.90;;;;;;6207736;23;20013;-63
2023/01/03 04:00:12;;;;;;;28.88;7.63;;;4.10;99.90;;;;;;6207853;23;20003;-63
2023/01/03 04:02:45;;;;;;;22.65;7.70;;;4.10;99.90;;;;;;6207650;23;20017;-63
2023/01/03 04:05:22;;;;;;;19.67;8.05;;;4.10;99.90;;;;;;6218369;23;20018;-64
2023/01/03 04:07:55;;;;;;;39.35;7.55;;;4.20;99.90;;;;;;6185459;23;20010;-62
2023/01/03 04:10:33;;;;;;;43.13;8.00;;;4.20;99.90;;;;;;6232314;23;20003;-65
2023/01/03 04:13:05;;;;;;;31.38;7.93;;;4.20;99.90;;;;;;6207641;23;19999;-64
2023/01/03 04:15:38;;;;;;;18.17;7.95;;;4.20;99.90;;;;;;6208218;23;20015;-62
2023/01/03 04:18:12;;;;;;;32.07;8.87;;;4.20;99.90;;;;;;6208961;23;20014;-63
2023/01/03 04:20:46;;;;;;;44.63;9.05;;;4.20;99.90;;;;;;6242455;23;20434;-63
2023/01/03 04:23:20;;;;;;;26.80;7.70;;;4.20;99.90;;;;;;6265818;23;20066;-64
2023/01/03 04:25:52;;;;;;;24.92;7.93;;;4.10;99.90;;;;;;6265810;23;20288;-65
2023/01/03 04:28:26;;;;;;;32.45;7.75;;;4.10;99.90;;;;;;6265825;23;20056;-62
2023/01/03 04:30:59;;;;;;;51.90;8.85;;;4.20;99.90;;;;;;6265780;23;20054;-64
2023/01/03 04:33:30;;;;;;;11.68;6.97;;;4.20;99.90;;;;;;6265018;23;20046;-62
2023/01/03 04:36:01;;;;;;;11.95;7.18;;;4.20;99.90;;;;;;6240722;23;20029;-64
2023/01/03 04:38:35;;;;;;;14.93;8.13;;;4.20;99.90;;;;;;6273412;23;20003;-64
2023/01/03 04:41:22;;;;;;;14.95;8.57;;;4.30;99.90;;;;;;6263183;23;20062;-64
2023/01/03 04:44:01;;;;;;;14.45;8.02;;;4.30;99.90;;;;;;6216432;23;20006;-65
2023/01/03 04:46:43;;;;;;;20.25;6.78;;;4.30;99.90;;;;;;6263077;23;20007;-63
2023/01/03 04:49:15;;;;;;;21.42;8.15;;;4.30;99.90;;;;;;6264196;23;20005;-62
2023/01/03 04:51:47;;;;;;;25.55;9.05;;;4.40;99.90;;;;;;6239585;23;20300;-64
2023/01/03 04:54:22;;;;;;;18.45;8.77;;;4.40;99.90;;;;;;6263258;23;20007;-66
2023/01/03 04:56:55;;;;;;;17.65;7.95;;;4.40;99.90;;;;;;6239119;23;20094;-65
2023/01/03 04:59:27;;;;;;;14.65;7.85;;;4.40;99.90;;;;;;6239233;23;19994;-65
2023/01/03 05:02:04;;;;;;;24.42;8.95;;;4.30;99.90;;;;;;6262698;23;20010;-63
2023/01/03 05:04:37;;;;;;;19.48;8.85;;;4.40;99.90;;;;;;6250422;23;20018;-65
2023/01/03 05:07:11;;;;;;;15.33;8.90;;;4.40;99.90;;;;;;6245038;23;20002;-65
2023/01/03 05:09:47;;;;;;;29.60;9.07;;;4.40;99.90;;;;;;6216141;23;20052;-65
2023/01/03 05:12:23;;;;;;;14.65;8.32;;;4.40;99.90;;;;;;6265375;23;20477;-64
2023/01/03 05:14:55;;;;;;;13.45;7.97;;;4.30;99.90;;;;;;6263610;23;20013;-63
2023/01/03 05:17:28;;;;;;;15.35;7.88;;;4.20;99.90;;;;;;6262207;23;20017;-64
2023/01/03 05:25:49;;;;;;;13.35;7.07;;;4.20;99.90;;;;;;6287752;23;20050;-64
2023/01/03 05:28:24;;;;;;;19.67;8.10;;;4.20;99.90;;;;;;6264401;23;20471;-63
2023/01/03 05:31:08;;;;;;;42.08;8.90;;;4.10;99.90;;;;;;6262251;23;20449;-64
2023/01/03 05:33:43;;;;;;;17.75;8.68;;;4.10;99.90;;;;;;6263033;23;20009;-64
2023/01/03 05:36:15;;;;;;;16.25;8.45;;;4.00;99.90;;;;;;6263012;23;20527;-63
2023/01/03 05:38:46;;;;;;;14.23;8.70;;;4.00;99.90;;;;;;6240224;23;20343;-63
2023/01/03 05:44:12;;;;;;;16.45;8.90;;;4.00;99.90;;;;;;6287139;23;19998;-60
2023/01/03 05:46:45;;;;;;;15.85;8.18;;;3.90;99.90;;;;;;6240659;23;20385;-65
2023/01/03 05:49:16;;;;;;;10.65;6.70;;;3.90;99.90;;;;;;6237381;23;20002;-64
2023/01/03 05:51:53;;;;;;;12.10;7.25;;;3.90;99.90;;;;;;6264224;23;20042;-64
2023/01/03 05:54:27;;;;;;;17.02;8.45;;;3.90;99.90;;;;;;6263464;23;20013;-64
2023/01/03 05:57:01;;;;;;;13.53;7.80;;;3.90;99.90;;;;;;6262472;23;20013;-66
2023/01/03 05:59:34;;;;;;;13.32;8.35;;;3.90;99.90;;;;;;6265157;23;20273;-63
2023/01/03 06:02:09;;;;;;;15.55;8.68;;;3.90;99.90;;;;;;6261896;23;20368;-61
2023/01/03 06:04:43;;;;;;;14.77;8.02;;;3.90;99.90;;;;;;6232063;23;20559;-65
2023/01/03 06:07:16;;;;;;;19.33;7.65;;;4.00;99.90;;;;;;6263095;23;20108;-65
2023/01/03 06:09:52;;;;;;;12.90;7.25;;;4.00;99.90;;;;;;6239876;23;20003;-65
2023/01/03 06:12:28;;;;;;;15.88;8.73;;;4.00;99.90;;;;;;6263096;23;20337;-64
2023/01/03 06:14:59;;;;;;;14.40;8.80;;;3.90;99.90;;;;;;6287694;23;20017;-63
2023/01/03 06:20:21;;;;;;;9.02;6.60;;;3.80;99.90;;;;;;6287369;23;20010;-64
2023/01/03 06:22:55;;;;;;;16.13;9.20;;;3.80;99.90;;;;;;6215027;23;20203;-64
2023/01/03 06:25:31;;;;;;;;;;;3.80;99.90;;;;;;6239426;23;20066;-66
2023/01/03 06:28:08;;;;;;;15.77;8.80;;;3.80;99.90;;;;;;6262079;23;19906;-66
2023/01/03 06:30:41;;;;;;;31.27;9.20;;;3.70;99.90;;;;;;6239906;23;20060;-65
2023/01/03 06:33:13;;;;;;;26.37;10.43;;;3.70;99.90;;;;;;6262779;23;20419;-66
2023/01/03 06:35:46;;;;;;;31.20;11.02;;;3.70;99.90;;;;;;6263692;23;20191;-66
2023/01/03 06:38:18;;;;;;;26.38;11.48;;;3.70;99.90;;;;;;6263645;23;20007;-65
2023/01/03 06:40:49;;;;;;;25.95;10.13;;;3.70;99.90;;;;;;6240026;23;20009;-66
2023/01/03 06:43:20;;;;;;;14.65;9.07;;;3.70;99.90;;;;;;6263972;23;20014;-67
2023/01/03 06:54:31;;;;;;;21.23;10.93;;;4.00;99.90;;;;;;6266096;23;20007;-66
2023/01/03 06:57:02;;;;;;;19.67;11.40;;;4.00;99.90;;;;;;6238747;23;19998;-64
2023/01/03 06:59:36;;;;;;;16.90;9.80;;;4.10;99.90;;;;;;6272898;23;19999;-66
2023/01/03 07:02:12;;;;;;;16.37;10.67;;;4.20;99.90;;;;;;6262902;23;20482;-63
2023/01/03 07:04:48;;;;;;;17.40;8.88;;;4.20;99.90;;;;;;6255547;23;20022;-66
2023/01/03 07:07:23;;;;;;;16.00;8.95;;;4.20;99.90;;;;;;6262985;23;20007;-66
2023/01/03 07:09:54;;;;;;;;;;;4.30;99.90;;;;;;6266061;23;19991;-63
2023/01/03 07:15:18;;;;;;;12.23;6.68;;;4.70;99.90;;;;;;6286782;23;20014;-64
2023/01/03 07:17:52;;;;;;;8.55;6.10;;;5.00;99.90;;;;;;6264548;23;19995;-63
2023/01/03 07:20:28;;;;;;;10.02;6.20;;;5.30;99.90;;;;;;6264064;23;19998;-63
2023/01/03 07:22:59;;;;;;;11.60;6.43;;;5.60;99.90;;;;;;6240987;23;20034;-65
2023/01/03 07:25:33;;;;;;;9.77;6.22;;;6.10;99.90;;;;;;6264098;23;19999;-67
2023/01/03 07:28:11;;;;;;;6.75;5.53;;;6.50;99.90;;;;;;6287405;23;19995;-64
2023/01/03 07:30:58;;;;;;;8.73;5.55;;;6.90;99.90;;;;;;6241288;23;20063;-68
2023/01/03 07:33:33;;;;;;;7.35;4.35;;;7.40;99.90;;;;;;6264082;23;19995;-66
2023/01/03 07:36:10;;;;;;;8.15;4.20;;;7.70;99.90;;;;;;6239762;23;19999;-67
2023/01/03 07:38:43;;;;;;;8.00;4.22;;;8.00;99.90;;;;;;6263938;23;20017;-67
2023/01/03 07:41:20;;;;;;;8.00;4.72;;;8.30;99.90;;;;;;6264188;23;19994;-69
2023/01/03 07:43:51;;;;;;;5.22;3.22;;;8.50;99.90;;;;;;6240343;23;20339;-66
2023/01/03 07:46:23;;;;;;;5.90;3.45;;;8.70;99.90;;;;;;6263163;23;19994;-66
2023/01/03 07:49:01;;;;;;;5.35;3.90;;;8.90;99.90;;;;;;6240151;23;20027;-64
2023/01/03 07:51:33;;;;;;;5.72;3.35;;;9.00;99.90;;;;;;6263361;23;20003;-69
2023/01/03 07:54:07;;;;;;;4.65;3.00;;;9.10;99.90;;;;;;6263409;23;20020;-69
2023/01/03 07:56:47;;;;;;;6.35;3.50;;;9.20;99.90;;;;;;6249233;23;20017;-67
2023/01/03 07:59:18;;;;;;;4.40;3.20;;;9.30;99.90;;;;;;6259312;23;19995;-68
2023/01/03 08:01:49;;;;;;;7.03;3.88;;;9.40;99.90;;;;;;6237030;23;20010;-68
2023/01/03 08:04:21;;;;;;;9.77;5.68;;;9.50;99.90;;;;;;6224705;23;20002;-66
2023/01/03 08:06:55;;;;;;;18.02;8.93;;;9.50;99.90;;;;;;6241120;23;19999;-66
2023/01/03 08:15:11;;;;;;;8.82;4.10;;;9.80;99.90;;;;;;6287060;23;20247;-68
2023/01/03 08:17:42;;;;;;;8.93;4.55;;;9.90;99.90;;;;;;6261542;23;20001;-66
2023/01/03 08:20:14;;;;;;;7.88;3.67;;;10.00;99.90;;;;;;6262326;23;20013;-68
2023/01/03 08:22:47;;;;;;;9.25;3.75;;;10.00;99.90;;;;;;6239451;23;20009;-66
2023/01/03 08:25:19;;;;;;;4.82;3.33;;;10.00;99.90;;;;;;6273459;23;20002;-67
2023/01/03 08:27:56;;;;;;;8.85;4.25;;;10.00;99.90;;;;;;6287279;23;20003;-69
2023/01/03 08:30:28;;;;;;;7.72;4.25;;;10.00;99.90;;;;;;6262580;23;20103;-67
2023/01/03 08:33:02;;;;;;;13.23;3.85;;;10.00;99.90;;;;;;6264477;23;20039;-68
2023/01/03 08:35:37;;;;;;;6.18;3.80;;;10.20;99.90;;;;;;6238825;23;20021;-67
2023/01/03 08:38:15;;;;;;;5.82;3.45;;;10.20;99.90;;;;;;6262452;23;20003;-65
2023/01/03 08:40:52;;;;;;;8.68;4.35;;;10.30;99.90;;;;;;6238244;23;20005;-66
2023/01/03 08:43:27;;;;;;;4.72;3.00;;;10.30;99.90;;;;;;6264058;23;20305;-64
2023/01/03 08:46:02;;;;;;;5.30;3.83;;;10.40;99.90;;;;;;6264391;23;19991;-66
2023/01/03 08:48:36;;;;;;;5.63;3.92;;;10.40;99.90;;;;;;6262423;23;20009;-64
2023/01/03 08:51:07;;;;;;;5.50;3.83;;;10.30;99.90;;;;;;6263083;23;20009;-65
2023/01/03 08:53:39;;;;;;;6.53;4.13;;;10.30;99.90;;;;;;6265015;23;20002;-69
2023/01/03 08:56:13;;;;;;;7.97;4.05;;;10.30;99.90;;;;;;6237736;23;20014;-69
2023/01/03 08:58:45;;;;;;;6.72;4.13;;;10.30;99.90;;;;;;6262303;23;20295;-67
2023/01/03 09:01:19;;;;;;;7.80;3.80;;;10.30;99.90;;;;;;6261304;23;20509;-69
2023/01/03 09:03:51;;;;;;;6.03;3.92;;;10.20;99.90;;;;;;6263741;23;20003;-67
2023/01/03 09:06:24;;;;;;;9.30;3.85;;;10.20;99.90;;;;;;6248701;23;20241;-67
2023/01/03 09:09:03;;;;;;;4.80;3.42;;;10.20;99.90;;;;;;6238933;23;20003;-67
2023/01/03 09:11:34;;;;;;;5.93;3.85;;;10.20;99.90;;;;;;6264580;23;20224;-67
2023/01/03 09:14:06;;;;;;;6.80;3.92;;;10.20;99.90;;;;;;6237376;23;20355;-68
2023/01/03 09:16:37;;;;;;;6.75;3.97;;;10.30;99.90;;;;;;6261811;23;20006;-68
2023/01/03 09:19:08;;;;;;;6.05;4.25;;;10.30;99.90;;;;;;6273644;23;20054;-67
2023/01/03 09:21:42;;;;;;;8.18;4.38;;;10.40;99.90;;;;;;6263122;23;20003;-68
2023/01/03 09:24:15;;;;;;;8.32;4.72;;;10.50;99.90;;;;;;6262923;23;20003;-69
2023/01/03 09:26:48;;;;;;;7.22;3.85;;;10.50;99.90;;;;;;6285995;23;20362;-66
2023/01/03 09:29:20;;;;;;;8.20;4.07;;;10.60;99.90;;;;;;6238871;23;20009;-67
2023/01/03 09:32:02;;;;;;;5.13;4.28;;;10.70;99.90;;;;;;6262265;23;20005;-66
2023/01/03 09:34:34;;;;;;;10.25;6.38;;;10.70;99.90;;;;;;6263593;23;19999;-68
2023/01/03 09:37:10;;;;;;;101.90;38.55;;;10.70;99.90;;;;;;6237320;23;20007;-67
2023/01/03 09:39:42;;;;;;;9.02;6.22;;;10.90;99.90;;;;;;6238611;23;20575;-64
2023/01/03 09:45:26;;;;;;;6.50;3.80;;;11.10;99.90;;;;;;6264382;23;20044;-66
2023/01/03 09:48:02;;;;;;;6.47;4.00;;;11.20;99.90;;;;;;6263900;23;19995;-69
2023/01/03 09:50:37;;;;;;;8.23;4.15;;;11.20;99.90;;;;;;6239492;23;19995;-69
2023/01/03 10:05:59;;;;;;;6.00;3.25;;;11.40;99.90;;;;;;6249584;23;20010;-67
2023/01/03 10:09:03;;;;;;;6.22;4.05;;;11.40;99.90;;;;;;6236947;23;20009;-66
2023/01/03 10:11:49;;;;;;;3.30;2.50;;;11.40;99.90;;;;;;6263878;23;20002;-67
2023/01/03 10:14:23;;;;;;;5.78;2.47;;;11.50;99.90;;;;;;6239188;23;20003;-67
2023/01/03 10:17:18;;;;;;;5.82;2.75;;;11.50;99.90;;;;;;6263982;23;20014;-66
2023/01/03 10:20:10;;;;;;;3.55;3.17;;;11.40;99.90;;;;;;6239006;23;19994;-68
2023/01/03 10:22:54;;;;;;;5.65;2.72;;;11.50;99.90;;;;;;6237754;23;20001;-69
2023/01/03 10:25:27;;;;;;;4.78;2.78;;;11.50;99.90;;;;;;6261754;23;20285;-64
2023/01/03 10:28:19;;;;;;;4.75;2.75;;;11.50;99.90;;;;;;6235456;23;20252;-70
2023/01/03 10:31:05;;;;;;;10.27;6.90;;;11.60;99.90;;;;;;6259996;23;20005;-68
2023/01/03 10:33:49;;;;;;;4.82;3.03;;;11.60;99.90;;;;;;6264417;23;20062;-66
2023/01/03 10:36:23;;;;;;;7.35;3.42;;;11.60;99.90;;;;;;6239144;23;20014;-68
2023/01/03 10:39:12;;;;;;;2.80;2.45;;;11.70;99.90;;;;;;6239912;23;20013;-66
2023/01/03 10:41:51;;;;;;;6.85;3.20;;;11.70;99.90;;;;;;6264016;23;20047;-68
2023/01/03 10:44:28;;;;;;;7.32;3.50;;;11.90;99.90;;;;;;6264201;23;20497;-64
2023/01/03 10:47:10;;;;;;;6.30;3.80;;;11.90;99.90;;;;;;6237717;23;20218;-67
2023/01/03 10:49:45;;;;;;;5.13;2.90;;;12.10;99.90;;;;;;6263898;23;20046;-67
2023/01/03 10:52:21;;;;;;;4.82;3.55;;;12.20;99.90;;;;;;6261764;23;20054;-68
2023/01/03 10:55:13;;;;;;;4.35;3.60;;;12.30;99.90;;;;;;6262578;23;20001;-67
2023/01/03 10:58:15;;;;;;;3.25;2.83;;;12.40;99.90;;;;;;6262677;23;20161;-68
2023/01/03 11:01:10;;;;;;;4.88;3.22;;;12.50;99.90;;;;;;6237867;23;20331;-67
2023/01/03 11:03:43;;;;;;;6.03;3.22;;;12.30;91.00;;;;;;6261417;23;19995;-67
2023/01/03 11:06:19;;;;;;;4.80;2.70;;;12.30;99.10;;;;;;6252086;23;20017;-66
2023/01/03 11:09:06;;;;;;;6.47;2.65;;;12.00;99.90;;;;;;6238041;23;20365;-65
2023/01/03 11:11:44;;;;;;;4.20;2.47;;;12.00;99.90;;;;;;6237477;23;19995;-67
2023/01/03 11:14:23;;;;;;;5.65;2.42;;;12.30;92.00;;;;;;6261310;23;20001;-67
2023/01/03 11:17:02;;;;;;;4.47;2.80;;;12.40;72.10;;;;;;6237393;23;20143;-66
2023/01/03 11:19:38;;;;;;;3.75;2.50;;;12.20;31.70;;;;;;6263012;23;19991;-66
2023/01/03 11:22:12;;;;;;;4.03;2.80;;;12.00;69.50;;;;;;6265451;23;20016;-68
2023/01/03 11:25:15;;;;;;;3.40;2.08;;;11.90;83.10;;;;;;6237517;23;20001;-66
2023/01/03 11:28:01;;;;;;;3.20;2.58;;;11.70;90.30;;;;;;6239387;23;19995;-70
2023/01/03 11:30:59;;;;;;;2.78;2.20;;;11.60;93.80;;;;;;6239625;23;19995;-65
2023/01/03 11:34:04;;;;;;;5.03;2.63;;;11.40;99.90;;;;;;6174425;23;19996;-67
2023/01/03 11:36:38;;;;;;;3.40;2.55;;;11.30;99.90;;;;;;6150703;23;20000;-67
2023/01/03 11:39:24;;;;;;;5.10;2.97;;;11.20;99.90;;;;;;6176500;23;20000;-65
2023/01/03 11:42:00;;;;;;;5.40;2.38;;;11.10;99.90;;;;;;6174613;23;19996;-67
2023/01/03 11:44:51;;;;;;;2.83;2.30;;;11.10;99.90;;;;;;6175052;23;19996;-68
2023/01/03 11:47:25;;;;;;;3.63;2.65;;;11.20;99.90;;;;;;6174262;23;20464;-67
2023/01/03 11:50:23;;;;;;;2.85;2.55;;;11.10;99.90;;;;;;6148961;24;20003;-65
2023/01/03 11:53:27;;;;;;;3.75;2.53;;;11.30;99.90;;;;;;6127474;23;20064;-68
2023/01/03 11:56:24;;;;;;;3.75;2.33;;;11.30;99.90;;;;;;6171927;23;20008;-68
2023/01/03 11:59:09;;;;;;;4.47;2.90;;;11.40;99.90;;;;;;6152123;23;19997;-67
2023/01/03 12:01:58;;;;;;;4.55;3.08;;;11.30;99.90;;;;;;6150091;23;20004;-71
2023/01/03 12:04:49;;;;;;;4.32;2.60;;;11.30;99.90;;;;;;6159047;23;20028;-69
2023/01/03 12:07:32;;;;;;;4.22;2.13;;;11.30;99.90;;;;;;6127540;24;20004;-68
2023/01/03 12:10:16;;;;;;;4.35;2.58;;;11.30;99.90;;;;;;6189412;23;20198;-69
2023/01/03 12:13:15;;;;;;;3.45;3.13;;;11.20;99.90;;;;;;6239187;23;20009;-68
2023/01/03 12:16:03;;;;;;;3.85;2.72;;;11.20;99.90;;;;;;6262677;23;20013;-70
2023/01/03 12:18:41;;;;;;;4.45;2.78;;;11.20;99.90;;;;;;6263614;23;19994;-65
2023/01/03 12:21:30;;;;;;;3.45;3.15;;;11.20;99.90;;;;;;6264653;23;20009;-63
2023/01/03 12:24:25;;;;;;;5.72;2.88;;;11.10;99.90;;;;;;6240625;23;20469;-67
2023/01/03 12:27:13;;;;;;;3.63;2.53;;;11.20;99.90;;;;;;6263533;23;20013;-64
2023/01/03 12:29:58;;;;;;;3.47;2.55;;;11.10;99.90;;;;;;6239430;23;19995;-66
2023/01/03 12:32:33;;;;;;;;;;;11.20;99.90;;;;;;6266543;23;20009;-68
2023/01/03 12:35:36;;;;;;;3.95;2.72;;;11.20;99.90;;;;;;6264979;23;19905;-69
2023/01/03 12:38:10;;;;;;;8.70;2.47;;;11.10;99.90;;;;;;6264759;23;20611;-66
2023/01/03 12:41:06;;;;;;;3.30;2.55;;;10.90;99.90;;;;;;6265496;23;20321;-69
2023/01/03 12:43:57;;;;;;;4.70;2.50;;;10.90;99.90;;;;;;6266161;23;20063;-65
2023/01/03 12:46:34;;;;;;;3.95;3.08;;;10.80;99.90;;;;;;6239195;23;20006;-65
2023/01/03 12:49:24;;;;;;;2.80;2.38;;;10.80;99.90;;;;;;6238210;23;20001;-66
2023/01/03 12:51:55;;;;;;;3.28;2.55;;;10.80;99.90;;;;;;6261990;23;20315;-66
2023/01/03 12:54:42;;;;;;;4.07;2.83;;;10.80;99.90;;;;;;6238298;23;20003;-67
2023/01/03 12:57:38;;;;;;;4.80;2.08;;;10.80;99.90;;;;;;6261781;23;20199;-68
2023/01/03 13:00:35;;;;;;;6.72;2.35;;;10.70;99.90;;;;;;6287169;23;20007;-65
2023/01/03 13:03:23;;;;;;;3.60;2.67;;;10.70;99.90;;;;;;6264693;23;20030;-68
2023/01/03 13:06:09;;;;;;;5.82;2.85;;;10.80;99.90;;;;;;6254758;23;20395;-67
2023/01/03 13:08:42;;;;;;;6.43;2.63;;;10.80;99.90;;;;;;6257942;23;20191;-66
2023/01/03 13:11:33;;;;;;;4.72;2.70;;;10.70;99.90;;;;;;6261002;23;20002;-67
2023/01/03 13:14:25;;;;;;;4.13;2.88;;;10.80;99.90;;;;;;6262835;23;20007;-67
2023/01/03 13:17:15;;;;;;;3.58;2.50;;;10.80;99.90;;;;;;6285997;23;20005;-66
2023/01/03 13:19:55;;;;;;;2.60;2.30;;;10.90;99.90;;;;;;6238030;23;20146;-66
2023/01/03 13:22:34;;;;;;;3.80;2.63;;;10.90;99.90;;;;;;6239581;23;20485;-66
2023/01/03 13:25:27;;;;;;;5.03;2.83;;;10.80;99.90;;;;;;6238030;23;20002;-68
2023/01/03 13:28:21;;;;;;;3.65;2.25;;;10.90;99.90;;;;;;6262942;23;20272;-66
2023/01/03 13:31:16;;;;;;;3.28;2.45;;;10.90;99.90;;;;;;6238780;23;20461;-67
2023/01/03 13:33:50;;;;;;;6.88;2.60;;;10.80;99.90;;;;;;6238373;23;19995;-67
2023/01/03 13:36:45;;;;;;;3.17;2.28;;;10.60;99.90;;;;;;6263061;23;20006;-68
2023/01/03 13:39:38;;;;;;;4.85;2.70;;;10.50;99.90;;;;;;6262084;23;19999;-66
2023/01/03 13:42:40;;;;;;;5.22;2.80;;;10.60;99.90;;;;;;6263325;23;19995;-66
2023/01/03 13:45:16;;;;;;;5.45;2.90;;;10.50;99.90;;;;;;6233801;23;20005;-69
2023/01/03 13:47:52;;;;;;;3.53;2.58;;;10.60;99.90;;;;;;6236273;23;19995;-69
2023/01/03 13:50:26;;;;;;;4.03;2.50;;;10.50;99.90;;;;;;6230271;23;20014;-69
2023/01/03 13:53:09;;;;;;;7.22;3.08;;;10.50;99.90;;;;;;6263831;23;20003;-64
2023/01/03 13:55:47;;;;;;;2.83;2.10;;;10.40;99.90;;;;;;6244070;23;20196;-65
2023/01/03 13:58:27;;;;;;;3.60;2.10;;;10.40;99.90;;;;;;6237762;23;19999;-67
2023/01/03 14:01:05;;;;;;;4.93;2.47;;;10.40;99.90;;;;;;6261921;23;20003;-66
2023/01/03 14:03:54;;;;;;;6.72;2.80;;;10.40;99.90;;;;;;6237363;23;20002;-64
2023/01/03 14:06:50;;;;;;;7.40;3.28;;;10.40;99.90;;;;;;6227674;23;20544;-65
2023/01/03 14:09:27;;;;;;;6.82;3.38;;;10.40;99.90;;;;;;6260435;23;20279;-66
2023/01/03 14:12:16;;;;;;;4.85;2.85;;;10.50;99.90;;;;;;6262907;23;20190;-66
2023/01/03 14:14:55;;;;;;;3.50;2.53;;;10.40;99.90;;;;;;6262127;23;20523;-68
2023/01/03 14:17:37;;;;;;;4.72;2.30;;;10.40;99.90;;;;;;6238164;23;20010;-66
2023/01/03 14:20:15;;;;;;;3.58;2.65;;;10.30;99.90;;;;;;6264279;23;20005;-68
2023/01/03 14:22:52;;;;;;;3.10;2.80;;;10.30;99.90;;;;;;6262812;23;20006;-67
2023/01/03 14:25:52;;;;;;;3.45;2.10;;;10.20;99.90;;;;;;6238024;23;20010;-65
2023/01/03 14:28:36;;;;;;;5.30;2.10;;;10.20;99.90;;;;;;6235025;23;20360;-68
2023/01/03 14:31:20;;;;;;;4.90;2.97;;;10.20;99.90;;;;;;6261832;23;20005;-66
2023/01/03 14:33:53;;;;;;;2.42;2.20;;;10.20;99.90;;;;;;6237503;23;20001;-66
2023/01/03 14:36:25;;;;;;;3.65;2.67;;;10.20;99.90;;;;;;6238142;23;20187;-66
2023/01/03 14:39:01;;;;;;;5.05;2.83;;;10.10;99.90;;;;;;6238070;23;20060;-67
2023/01/03 14:41:37;;;;;;;4.68;2.42;;;10.00;99.90;;;;;;6263954;23;20619;-65
2023/01/03 14:44:15;;;;;;;4.10;2.70;;;10.00;99.90;;;;;;6238802;23;20410;-66
2023/01/03 14:46:58;;;;;;;3.38;2.50;;;9.90;99.90;;;;;;6237463;23;20006;-67
2023/01/03 14:49:36;;;;;;;3.13;2.38;;;9.90;99.90;;;;;;6273098;23;20054;-68
2023/01/03 14:52:29;;;;;;;4.53;3.05;;;9.90;99.90;;;;;;6237373;23;20003;-68
2023/01/03 14:55:16;;;;;;;4.43;2.97;;;9.90;99.90;;;;;;6262771;23;20007;-68